Time;durP1;ratioP1;P1;durP2;ratioP2;P2;SDS_P1;SDS_P2;PMS_P1;PMS_P2;Temp;Humidity;BMP_temperature;BMP_pressure;BME280_temperature;BME280_humidity;BME280_pressure;Samples;Min_cycle;Max_cycle;Signal;HPM_P1;HPM_P2
2022/04/27 00:01:56;;;;;;;16.02;14.30;;;;;;;5.86;100.00;99330.66;1653254;86;21318;-68
2022/04/27 00:04:37;;;;;;;14.65;12.20;;;;;;;5.84;100.00;99335.39;1639376;86;20947;-67
2022/04/27 00:07:07;;;;;;;16.20;10.58;;;;;;;5.76;100.00;99336.53;1645252;87;20991;-68
2022/04/27 00:09:37;;;;;;;37.63;20.20;;;;;;;5.74;100.00;99335.95;1634717;87;20910;-67
2022/04/27 00:12:12;;;;;;;165.77;148.70;;;;;;;5.70;100.00;99337.43;1618693;88;20945;-67
2022/04/27 00:14:43;;;;;;;122.02;110.68;;;;;;;5.64;100.00;99345.01;1640266;86;20954;-68
2022/04/27 00:17:11;;;;;;;234.40;213.95;;;;;;;5.56;100.00;99340.81;1645051;87;21062;-66
2022/04/27 00:19:51;;;;;;;51.33;46.90;;;;;;;5.54;100.00;99352.20;1645542;87;21002;-65
2022/04/27 00:22:23;;;;;;;23.62;21.17;;;;;;;5.48;100.00;99344.30;1645162;87;20974;-66
2022/04/27 00:25:05;;;;;;;17.90;14.73;;;;;;;5.40;100.00;99350.75;1618629;87;20967;-66
2022/04/27 00:27:34;;;;;;;12.07;10.38;;;;;;;5.34;100.00;99347.64;1638812;87;21340;-64
2022/04/27 00:30:12;;;;;;;15.50;13.88;;;;;;;5.34;100.00;99358.29;1640814;85;21047;-66
2022/04/27 00:32:47;;;;;;;14.00;12.50;;;;;;;5.33;100.00;99354.02;1650337;87;21008;-64
2022/04/27 00:35:18;;;;;;;17.62;15.88;;;;;;;5.30;100.00;99353.95;1650323;87;20996;-64
2022/04/27 00:37:52;;;;;;;12.00;10.68;;;;;;;5.37;100.00;99357.34;1647327;87;20991;-67
2022/04/27 00:40:28;;;;;;;24.00;19.23;;;;;;;5.38;100.00;99363.47;1650459;85;21220;-67
2022/04/27 00:43:00;;;;;;;35.23;24.65;;;;;;;5.34;100.00;99356.95;1650121;87;20999;-67
2022/04/27 00:45:33;;;;;;;23.38;16.62;;;;;;;5.36;100.00;99363.71;1650048;86;21086;-65
2022/04/27 00:48:05;;;;;;;14.70;11.35;;;;;;;5.30;100.00;99360.60;1657012;86;21056;-66
2022/04/27 00:50:38;;;;;;;32.45;19.98;;;;;;;5.27;100.00;99360.25;1631919;86;21488;-68
2022/04/27 00:53:07;;;;;;;24.63;17.27;;;;;;;5.25;100.00;99360.98;1608734;86;21292;-66
2022/04/27 00:55:38;;;;;;;14.78;12.78;;;;;;;5.22;100.00;99357.42;1629907;86;20995;-66
2022/04/27 00:58:07;;;;;;;23.92;17.05;;;;;;;5.16;100.00;99362.59;1664179;86;21522;-67
2022/04/27 01:00:37;;;;;;;11.25;9.50;;;;;;;5.13;100.00;99365.72;1639573;86;20880;-65
2022/04/27 01:03:09;;;;;;;19.85;15.55;;;;;;;5.09;100.00;99369.03;1644932;85;21578;-66
2022/04/27 01:05:37;;;;;;;12.63;11.45;;;;;;;5.09;100.00;99369.84;1645331;87;21172;-67
2022/04/27 01:08:13;;;;;;;15.05;12.82;;;;;;;5.09;100.00;99369.03;1645539;87;21084;-65
2022/04/27 01:10:44;;;;;;;12.60;11.25;;;;;;;5.09;100.00;99369.84;1645724;86;21534;-66
2022/04/27 01:13:14;;;;;;;13.20;11.40;;;;;;;5.12;100.00;99376.56;1616763;87;21544;-65
2022/04/27 01:15:49;;;;;;;11.03;9.93;;;;;;;5.12;100.00;99376.56;1639055;87;20910;-65
2022/04/27 01:18:22;;;;;;;16.82;12.37;;;;;;;5.13;100.00;99375.55;1618072;87;21163;-64
2022/04/27 01:20:58;;;;;;;10.53;9.43;;;;;;;5.10;100.00;99380.80;1617794;87;21009;-66
2022/04/27 01:23:29;;;;;;;16.95;12.00;;;;;;;5.12;100.00;99379.23;1645469;87;21057;-67
2022/04/27 01:26:05;;;;;;;10.98;8.95;;;;;;;5.11;100.00;99378.95;1645016;86;20963;-66
2022/04/27 01:28:35;;;;;;;10.65;9.53;;;;;;;5.12;100.00;99385.38;1645771;85;21007;-65
2022/04/27 01:31:06;;;;;;;17.23;11.57;;;;;;;5.13;100.00;99381.67;1662144;85;21959;-67
2022/04/27 01:33:38;;;;;;;16.17;11.65;;;;;;;5.11;100.00;99379.75;1672264;85;20991;-66
2022/04/27 01:36:10;;;;;;;18.70;12.78;;;;;;;5.09;100.00;99379.68;1672383;85;21588;-67
2022/04/27 01:38:44;;;;;;;12.93;10.65;;;;;;;5.07;100.00;99379.08;1672325;85;20970;-66
2022/04/27 01:41:13;;;;;;;14.63;11.60;;;;;;;5.09;100.00;99373.83;1643692;85;21043;-67
2022/04/27 01:43:44;;;;;;;10.45;8.33;;;;;;;5.05;100.00;99381.98;1644320;85;21262;-68
2022/04/27 01:46:14;;;;;;;9.20;7.58;;;;;;;5.01;100.00;99376.80;1642331;87;20959;-66
2022/04/27 01:48:45;;;;;;;7.53;6.65;;;;;;;4.98;100.00;99381.23;1643846;85;20963;-65
2022/04/27 01:51:14;;;;;;;7.70;6.90;;;;;;;4.99;100.00;99383.37;1643727;85;21498;-67
2022/04/27 01:56:33;;;;;;;7.67;6.97;;;;;;;5.02;100.00;99375.78;1619853;87;21106;-66
2022/04/27 01:59:02;;;;;;;15.40;11.60;;;;;;;5.07;100.00;99369.77;1641648;87;21486;-68
2022/04/27 02:01:33;;;;;;;60.75;54.80;;;;;;;5.13;100.00;99376.35;1626810;86;20999;-68
2022/04/27 02:04:02;;;;;;;84.32;76.47;;;;;;;5.23;100.00;99375.83;1586131;89;21021;-67
2022/04/27 02:06:35;;;;;;;27.42;24.60;;;;;;;5.35;100.00;99377.23;1622885;88;21499;-67
2022/04/27 02:09:09;;;;;;;9.33;8.43;;;;;;;5.45;100.00;99386.83;1560095;90;21883;-66
2022/04/27 02:11:44;;;;;;;9.10;8.13;;;;;;;5.48;100.00;99390.89;1640365;86;20992;-66
2022/04/27 02:14:13;;;;;;;21.60;15.78;;;;;;;5.48;100.00;99385.03;1656255;86;22190;-65
2022/04/27 02:16:45;;;;;;;29.50;23.12;;;;;;;5.48;100.00;99385.03;1656497;86;20928;-66
2022/04/27 02:19:20;;;;;;;14.28;7.95;;;;;;;5.50;100.00;99384.83;1656039;86;20991;-66
2022/04/27 02:21:49;;;;;;;11.43;9.50;;;;;;;5.55;100.00;99382.30;1612704;88;21092;-66
2022/04/27 02:24:18;;;;;;;7.87;7.12;;;;;;;5.61;100.00;99385.41;1656329;86;28344;-65
2022/04/27 02:26:47;;;;;;;8.03;7.22;;;;;;;5.63;100.00;99383.31;1656025;86;21520;-63
2022/04/27 02:29:16;;;;;;;8.50;7.45;;;;;;;5.62;100.00;99383.55;1626347;88;20980;-65
2022/04/27 02:31:45;;;;;;;10.35;8.48;;;;;;;5.61;100.00;99384.08;1626732;87;20893;-66
2022/04/27 02:34:13;;;;;;;7.83;7.12;;;;;;;5.60;100.00;99389.09;1656239;86;21254;-67
2022/04/27 02:36:43;;;;;;;8.93;7.92;;;;;;;5.61;100.00;99392.06;1626769;88;21495;-65
2022/04/27 02:39:15;;;;;;;12.15;8.58;;;;;;;5.63;100.00;99395.81;1612030;88;21064;-65
2022/04/27 02:41:45;;;;;;;27.30;21.17;;;;;;;5.66;100.00;99400.19;1626584;88;21075;-67
2022/04/27 02:44:15;;;;;;;13.48;11.97;;;;;;;5.69;100.00;99397.06;1656212;86;21048;-65
2022/04/27 02:46:48;;;;;;;34.48;29.37;;;;;;;5.73;100.00;99400.91;1626463;87;21198;-66
2022/04/27 02:52:13;;;;;;;15.43;11.53;;;;;;;5.79;100.00;99399.99;1611642;88;21057;-68
2022/04/27 02:54:49;;;;;;;18.40;12.78;;;;;;;5.80;100.00;99396.28;1601316;89;20934;-68
2022/04/27 02:57:21;;;;;;;18.15;12.33;;;;;;;5.79;100.00;99402.66;1600748;89;21033;-69
2022/04/27 02:59:51;;;;;;;9.68;7.40;;;;;;;5.84;100.00;99414.50;1615897;87;21159;-66
2022/04/27 03:02:20;;;;;;;9.23;7.80;;;;;;;5.86;100.00;99407.91;1612814;87;21000;-66
2022/04/27 03:04:49;;;;;;;9.95;8.05;;;;;;;5.84;100.00;99414.50;1618763;88;21163;-67
2022/04/27 03:07:18;;;;;;;8.30;7.50;;;;;;;5.80;100.00;99416.26;1616743;85;20990;-64
2022/04/27 03:09:47;;;;;;;11.78;7.10;;;;;;;5.81;100.00;99415.77;1644925;86;21001;-67
2022/04/27 03:12:14;;;;;;;8.78;7.87;;;;;;;5.82;100.00;99416.05;1644847;85;21353;-67
2022/04/27 03:14:44;;;;;;;8.43;7.42;;;;;;;5.84;100.00;99418.49;1617849;87;21559;-66
2022/04/27 03:17:11;;;;;;;9.08;8.18;;;;;;;5.84;100.00;99417.97;1617560;87;21001;-67
2022/04/27 03:19:38;;;;;;;7.90;7.20;;;;;;;5.85;100.00;99422.24;1645227;87;21033;-65
2022/04/27 03:22:08;;;;;;;9.30;8.15;;;;;;;5.85;100.00;99426.77;1645269;87;20965;-67
2022/04/27 03:24:37;;;;;;;8.80;7.65;;;;;;;5.85;100.00;99432.09;1645028;86;21186;-69
2022/04/27 03:27:06;;;;;;;9.35;7.70;;;;;;;5.84;100.00;99437.14;1644528;86;21057;-66
2022/04/27 03:29:33;;;;;;;8.93;8.03;;;;;;;5.86;100.00;99437.73;1645196;87;20965;-66
2022/04/27 03:32:02;;;;;;;8.00;7.20;;;;;;;5.87;100.00;99439.34;1645383;87;21005;-68
2022/04/27 03:34:29;;;;;;;7.65;6.92;;;;;;;5.88;100.00;99442.29;1645411;87;21077;-67
2022/04/27 03:36:58;;;;;;;36.15;25.25;;;;;;;5.88;100.00;99443.63;1645232;87;21165;-67
2022/04/27 03:39:25;;;;;;;21.80;19.27;;;;;;;5.89;100.00;99438.08;1645255;87;20965;-68
2022/04/27 03:41:54;;;;;;;30.48;23.52;;;;;;;5.90;100.00;99440.22;1645252;87;21049;-68
2022/04/27 03:44:21;;;;;;;10.65;7.87;;;;;;;5.91;100.00;99441.86;1645169;87;21056;-68
2022/04/27 03:46:48;;;;;;;13.40;8.03;;;;;;;5.95;100.00;99445.70;1645490;85;21057;-68
2022/04/27 03:49:15;;;;;;;8.20;7.30;;;;;;;5.95;100.00;99448.38;1645545;85;21808;-65
2022/04/27 03:51:41;;;;;;;8.18;7.37;;;;;;;5.96;100.00;99450.02;1645150;87;21029;-66
2022/04/27 03:54:09;;;;;;;10.53;7.75;;;;;;;5.98;100.00;99451.94;1645466;87;21187;-68
2022/04/27 03:56:37;;;;;;;37.45;23.12;;;;;;;5.99;100.00;99460.22;1625933;85;20989;-66
2022/04/27 03:59:04;;;;;;;8.10;7.28;;;;;;;5.99;100.00;99461.55;1619733;84;21004;-67
2022/04/27 04:01:32;;;;;;;9.35;7.92;;;;;;;6.00;100.00;99464.49;1642758;86;21656;-68
2022/04/27 04:04:00;;;;;;;8.93;7.15;;;;;;;6.00;100.00;99461.83;1642072;87;21090;-68
2022/04/27 04:06:27;;;;;;;30.90;27.13;;;;;;;6.04;100.00;99463.53;1628401;87;20952;-68
2022/04/27 04:08:55;;;;;;;9.38;8.48;;;;;;;6.10;100.00;99470.11;1642249;86;21011;-67
2022/04/27 04:11:24;;;;;;;15.72;10.58;;;;;;;6.10;100.00;99470.11;1666829;86;20987;-67
2022/04/27 04:13:53;;;;;;;16.05;12.85;;;;;;;6.14;100.00;99473.13;1668835;86;21184;-69
2022/04/27 04:16:22;;;;;;;67.35;38.78;;;;;;;6.18;100.00;99473.78;1669219;86;21554;-68
2022/04/27 04:19:07;;;;;;;12.50;8.55;;;;;;;6.25;100.00;99472.86;1670879;86;20915;-66
2022/04/27 04:21:38;;;;;;;13.80;11.93;;;;;;;6.28;100.00;99469.77;1670633;86;21023;-66
2022/04/27 04:24:08;;;;;;;7.33;6.62;;;;;;;6.34;100.00;99473.64;1669570;86;21039;-63
2022/04/27 04:29:24;;;;;;;9.25;7.72;;;;;;;6.42;100.00;99480.53;1670819;86;21023;-67
2022/04/27 04:31:52;;;;;;;7.72;6.95;;;;;;;6.48;100.00;99482.79;1644736;86;21044;-65
2022/04/27 04:34:22;;;;;;;8.73;7.58;;;;;;;6.53;100.00;99486.39;1629824;88;21474;-67
2022/04/27 04:36:49;;;;;;;7.95;6.50;;;;;;;6.58;100.00;99485.70;1643525;87;20986;-66
2022/04/27 04:39:17;;;;;;;7.58;6.78;;;;;;;6.61;100.00;99487.41;1643564;87;20936;-68
2022/04/27 04:41:46;;;;;;;9.58;7.37;;;;;;;6.70;100.00;99485.73;1630647;88;20945;-65
2022/04/27 04:44:14;;;;;;;8.03;7.22;;;;;;;6.74;100.00;99492.24;1645209;87;21025;-66
2022/04/27 04:46:55;;;;;;;8.50;7.17;;;;;;;6.78;100.00;99494.72;1640776;86;21490;-66
2022/04/27 04:49:34;;;;;;;8.65;7.35;;;;;;;6.81;100.00;99504.92;1641456;87;20937;-67
2022/04/27 04:52:04;;;;;;;7.75;6.95;;;;;;;6.85;100.00;99513.58;1628363;87;21009;-64
2022/04/27 04:54:34;;;;;;;7.03;6.33;;;;;;;6.90;100.00;99508.89;1637983;87;20916;-67
2022/04/27 04:57:05;;;;;;;12.37;8.95;;;;;;;6.94;100.00;99512.73;1638621;87;21048;-67
2022/04/27 04:59:38;;;;;;;9.60;8.53;;;;;;;6.98;100.00;99521.91;1629986;86;21008;-68
2022/04/27 05:02:13;;;;;;;10.65;8.93;;;;;;;7.01;100.00;99517.44;1616983;87;21726;-68
2022/04/27 05:04:58;;;;;;;9.50;7.80;;;;;;;7.03;100.00;99519.36;1618041;87;21284;-65
2022/04/27 05:07:44;;;;;;;7.70;6.90;;;;;;;7.01;100.00;99522.77;1645268;87;20967;-68
2022/04/27 05:10:13;;;;;;;7.53;6.83;;;;;;;7.07;100.00;99523.70;1646534;84;20995;-67
2022/04/27 05:12:47;;;;;;;7.90;7.20;;;;;;;7.14;100.00;99523.59;1645100;87;20987;-65
2022/04/27 05:15:15;;;;;;;7.40;6.70;;;;;;;7.18;100.00;99530.08;1647715;85;20915;-70
2022/04/27 05:17:47;;;;;;;8.98;6.80;;;;;;;7.22;100.00;99532.05;1645081;87;21390;-67
2022/04/27 05:20:15;;;;;;;8.83;7.78;;;;;;;7.30;100.00;99534.92;1618947;85;21442;-68
2022/04/27 05:22:47;;;;;;;7.87;7.08;;;;;;;7.36;100.00;99533.17;1644738;87;21020;-68
2022/04/27 05:25:22;;;;;;;7.53;6.78;;;;;;;7.39;100.00;99531.36;1659244;85;21042;-66
2022/04/27 05:27:56;;;;;;;6.42;5.83;;;;;;;7.43;100.00;99533.33;1645169;87;21106;-69
2022/04/27 05:33:46;;;;;;;9.40;7.10;;;;;;;7.56;100.00;99540.28;1615401;88;20990;-69
2022/04/27 05:36:15;;;;;;;9.75;7.62;;;;;;;7.72;100.00;99540.09;1615320;88;20946;-66
2022/04/27 05:39:00;;;;;;;10.08;7.20;;;;;;;7.80;100.00;99541.59;1615345;88;21022;-68
2022/04/27 05:41:34;;;;;;;47.05;32.58;;;;;;;7.88;100.00;99543.36;1615215;88;21106;-68
2022/04/27 05:44:03;;;;;;;17.25;15.45;;;;;;;7.98;100.00;99546.77;1613994;88;22089;-68
2022/04/27 05:46:38;;;;;;;41.33;26.68;;;;;;;8.11;100.00;99551.05;1614570;88;21594;-66
2022/04/27 05:49:07;;;;;;;41.10;23.15;;;;;;;8.23;100.00;99550.98;1608541;87;21080;-67
2022/04/27 05:51:38;;;;;;;110.08;54.20;;;;;;;8.33;100.00;99556.02;1605422;89;21186;-70
2022/04/27 05:54:19;;;;;;;117.80;53.23;;;;;;;8.40;100.00;99561.77;1609418;88;21154;-67
2022/04/27 05:57:04;;;;;;;446.72;213.35;;;;;;;8.39;100.00;99568.95;1620355;88;21306;-65
2022/04/27 05:59:33;;;;;;;144.65;58.42;;;;;;;8.47;100.00;99564.58;1596792;87;21103;-69
2022/04/27 06:02:04;;;;;;;385.00;162.25;;;;;;;8.56;100.00;99577.05;1616467;87;21550;-67
2022/04/27 06:04:32;;;;;;;;;;;;;;;8.59;100.00;99572.02;1617757;88;21023;-66
2022/04/27 06:06:59;;;;;;;259.25;109.50;;;;;;;8.62;100.00;99576.61;1618572;87;20193;-66
2022/04/27 06:09:27;;;;;;;191.70;80.07;;;;;;;8.68;100.00;99585.03;1650413;87;21022;-66
2022/04/27 06:12:00;;;;;;;20.00;12.58;;;;;;;8.77;100.00;99588.92;1650180;87;21580;-70
2022/04/27 06:14:42;;;;;;;18.52;12.45;;;;;;;8.88;100.00;99596.09;1650408;87;21038;-67
2022/04/27 06:17:11;;;;;;;28.12;18.75;;;;;;;8.94;100.00;99589.78;1650664;85;21096;-66
2022/04/27 06:19:40;;;;;;;13.60;10.82;;;;;;;9.06;100.00;99599.59;1650465;87;20986;-66
2022/04/27 06:22:08;;;;;;;15.48;13.72;;;;;;;9.20;100.00;99599.56;1650547;85;21187;-67
2022/04/27 06:24:36;;;;;;;15.23;13.48;;;;;;;9.27;100.00;99604.77;1650154;87;21011;-66
2022/04/27 06:27:08;;;;;;;10.00;8.50;;;;;;;9.23;100.00;99599.06;1652911;85;21002;-65
2022/04/27 06:29:35;;;;;;;11.93;8.53;;;;;;;9.34;100.00;99606.75;1650265;87;21039;-65
2022/04/27 06:32:04;;;;;;;7.95;7.17;;;;;;;9.39;100.00;99608.97;1645313;87;21051;-66
2022/04/27 06:34:33;;;;;;;13.65;7.17;;;;;;;9.35;100.00;99611.05;1628910;87;23057;-69
2022/04/27 06:37:00;;;;;;;6.62;5.62;;;;;;;9.43;100.00;99614.13;1617269;88;21117;-67
2022/04/27 06:39:34;;;;;;;8.10;6.30;;;;;;;9.55;100.00;99619.37;1617440;88;21559;-69
2022/04/27 06:42:03;;;;;;;10.03;6.28;;;;;;;9.64;100.00;99619.79;1617648;88;21018;-67
2022/04/27 06:44:30;;;;;;;11.50;6.60;;;;;;;9.75;100.00;99620.23;1617654;88;21114;-66
2022/04/27 06:47:16;;;;;;;9.50;5.03;;;;;;;9.86;100.00;99624.66;1646078;85;21877;-68
2022/04/27 06:50:01;;;;;;;5.22;4.70;;;;;;;9.93;100.00;99634.41;1650267;87;21570;-69
2022/04/27 06:52:31;;;;;;;12.37;6.33;;;;;;;10.00;100.00;99631.83;1620731;87;20986;-66
2022/04/27 06:54:59;;;;;;;;;;;;;;;10.00;100.00;99639.88;1622535;85;21066;-67
2022/04/27 06:57:35;;;;;;;7.95;5.58;;;;;;;10.08;100.00;99643.45;1636401;87;20153;-68
2022/04/27 07:00:04;;;;;;;;;;;;;;;10.30;100.00;99650.20;1626181;85;21295;-66
2022/04/27 07:02:31;;;;;;;7.35;5.83;;;;;;;10.32;100.00;99645.14;1623079;86;20122;-67
2022/04/27 07:05:01;;;;;;;6.53;5.90;;;;;;;10.38;100.00;99650.83;1616435;87;20986;-68
2022/04/27 07:07:28;;;;;;;5.30;4.78;;;;;;;10.55;100.00;99658.28;1620647;88;21767;-66
2022/04/27 07:09:58;;;;;;;84.97;55.00;;;;;;;10.60;100.00;99662.36;1620662;87;20967;-67
2022/04/27 07:12:26;;;;;;;31.25;18.42;;;;;;;10.59;100.00;99662.63;1620785;88;23663;-67
2022/04/27 07:14:54;;;;;;;42.05;26.25;;;;;;;10.46;100.00;99661.12;1620562;88;20951;-68
2022/04/27 07:17:21;;;;;;;56.73;37.60;;;;;;;10.40;100.00;99660.80;1620717;87;21524;-68
2022/04/27 07:19:50;;;;;;;45.80;32.00;;;;;;;10.42;100.00;99668.88;1620698;88;28420;-68
2022/04/27 07:22:17;;;;;;;39.83;24.52;;;;;;;10.62;100.00;99665.61;1620946;87;21449;-67
2022/04/27 07:24:44;;;;;;;78.00;44.30;;;;;;;10.60;100.00;99664.24;1620545;88;21239;-66
2022/04/27 07:27:12;;;;;;;88.72;46.05;;;;;;;10.60;100.00;99668.27;1621146;87;20967;-67
2022/04/27 07:29:38;;;;;;;304.38;160.75;;;;;;;10.71;100.00;99672.70;1627294;85;21049;-66
2022/04/27 07:32:07;;;;;;;34.73;18.87;;;;;;;10.79;100.00;99670.91;1678000;85;21597;-65
2022/04/27 07:34:35;;;;;;;80.95;43.05;;;;;;;10.91;100.00;99677.48;1677507;85;21517;-67
2022/04/27 07:37:03;;;;;;;27.55;17.02;;;;;;;10.98;100.00;99677.28;1677281;85;21168;-65
2022/04/27 07:39:30;;;;;;;7.90;5.40;;;;;;;11.16;100.00;99682.28;1677272;85;20951;-68
2022/04/27 07:41:57;;;;;;;10.90;8.23;;;;;;;11.12;100.00;99682.00;1677377;85;20963;-68
2022/04/27 07:44:24;;;;;;;69.30;50.17;;;;;;;11.03;100.00;99688.88;1638991;87;20940;-67
2022/04/27 07:46:51;;;;;;;11.83;9.48;;;;;;;10.93;100.00;99688.78;1641107;86;21015;-66
2022/04/27 07:49:22;;;;;;;14.20;12.35;;;;;;;10.99;100.00;99687.75;1621435;87;21223;-67
2022/04/27 07:51:49;;;;;;;7.37;6.35;;;;;;;11.18;100.00;99699.50;1609783;89;20986;-65
2022/04/27 07:54:17;;;;;;;9.08;6.58;;;;;;;11.21;100.00;99699.80;1609705;88;21004;-67
2022/04/27 07:56:44;;;;;;;9.68;5.60;;;;;;;11.09;100.00;99696.45;1621481;88;20931;-67
2022/04/27 07:59:11;;;;;;;12.85;5.53;;;;;;;11.01;100.00;99696.91;1609625;87;21023;-67
2022/04/27 08:01:38;;;;;;;10.03;5.60;;;;;;;11.08;100.00;99700.21;1622656;87;21522;-67
2022/04/27 08:04:05;;;;;;;8.13;5.97;;;;;;;11.34;100.00;99702.08;1638226;86;21003;-67
2022/04/27 08:06:33;;;;;;;8.00;5.13;;;;;;;11.68;100.00;99697.77;1638037;86;20969;-66
2022/04/27 08:09:00;;;;;;;6.47;5.78;;;;;;;12.08;100.00;99700.52;1638112;87;21161;-67
2022/04/27 08:11:28;;;;;;;10.28;5.95;;;;;;;12.32;100.00;99703.61;1637983;87;26748;-67
2022/04/27 08:13:55;;;;;;;9.70;6.33;;;;;;;12.35;100.00;99708.47;1638127;87;21266;-67
2022/04/27 08:16:22;;;;;;;10.18;7.47;;;;;;;12.30;100.00;99715.69;1637798;87;20971;-66
2022/04/27 08:18:50;;;;;;;5.97;4.80;;;;;;;12.23;100.00;99716.74;1637798;87;21044;-68
2022/04/27 08:21:21;;;;;;;7.50;5.85;;;;;;;12.10;100.00;99715.88;1637691;87;20967;-67
2022/04/27 08:23:48;;;;;;;9.23;6.05;;;;;;;12.01;100.00;99720.91;1637766;87;21666;-66
2022/04/27 08:26:15;;;;;;;7.67;5.17;;;;;;;11.88;100.00;99718.68;1637845;87;21447;-68
2022/04/27 08:28:43;;;;;;;7.30;5.80;;;;;;;11.94;100.00;99723.55;1637993;87;21553;-65
2022/04/27 08:31:12;;;;;;;6.30;5.35;;;;;;;11.89;100.00;99716.80;1642576;87;21532;-66
2022/04/27 08:33:39;;;;;;;6.47;5.37;;;;;;;11.82;100.00;99716.17;1645020;86;21006;-65
2022/04/27 08:36:06;;;;;;;6.22;5.62;;;;;;;11.80;100.00;99717.77;1644948;87;20947;-67
2022/04/27 08:38:34;;;;;;;11.28;6.20;;;;;;;11.74;100.00;99725.53;1645253;87;21152;-66
2022/04/27 08:41:01;;;;;;;8.23;5.92;;;;;;;11.62;100.00;99726.23;1640351;86;21020;-66
2022/04/27 08:43:27;;;;;;;10.80;7.70;;;;;;;11.70;100.00;99724.41;1636803;86;21063;-66
2022/04/27 08:45:55;;;;;;;5.80;5.20;;;;;;;11.75;100.00;99727.95;1637735;87;21515;-66
2022/04/27 08:48:22;;;;;;;7.03;5.90;;;;;;;11.70;100.00;99731.13;1643785;87;21130;-67
2022/04/27 08:50:50;;;;;;;6.55;5.70;;;;;;;11.64;100.00;99724.91;1645122;87;20967;-66
2022/04/27 08:53:18;;;;;;;8.75;6.15;;;;;;;11.54;100.00;99729.67;1617706;87;21018;-67
2022/04/27 08:55:45;;;;;;;39.67;28.85;;;;;;;11.60;100.00;99726.48;1645354;87;21058;-70
2022/04/27 08:58:16;;;;;;;30.88;22.62;;;;;;;11.70;100.00;99719.84;1645349;87;21066;-69
2022/04/27 09:00:45;;;;;;;67.85;48.08;;;;;;;11.92;100.00;99730.53;1638157;86;21000;-68
2022/04/27 09:03:34;;;;;;;22.20;14.87;;;;;;;12.12;100.00;99733.88;1637595;87;21146;-67
2022/04/27 09:06:06;;;;;;;12.00;9.93;;;;;;;12.16;100.00;99731.50;1610356;89;20990;-66
2022/04/27 09:08:48;;;;;;;27.27;18.92;;;;;;;12.15;100.00;99729.86;1628741;87;21016;-66
2022/04/27 09:11:28;;;;;;;13.03;11.53;;;;;;;12.25;100.00;99729.95;1637637;87;21527;-67
2022/04/27 09:13:58;;;;;;;15.40;13.00;;;;;;;12.28;100.00;99729.97;1637663;87;20988;-65
2022/04/27 09:22:12;;;;;;;11.08;9.80;;;;;;;12.29;100.00;99734.27;1637729;87;21560;-66
2022/04/27 09:24:52;;;;;;;13.55;8.43;;;;;;;12.23;100.00;99737.47;1637615;87;20963;-68
2022/04/27 09:27:23;;;;;;;19.95;10.72;;;;;;;12.10;100.00;99740.59;1617386;87;23832;-65
2022/04/27 09:29:56;;;;;;;12.68;9.60;;;;;;;12.13;100.00;99739.56;1638550;86;20999;-66
2022/04/27 09:32:25;;;;;;;9.78;8.60;;;;;;;12.33;100.00;99738.06;1645012;87;20911;-65
2022/04/27 09:34:56;;;;;;;8.90;6.35;;;;;;;12.50;100.00;99741.38;1636796;87;20980;-67
2022/04/27 09:37:25;;;;;;;7.55;5.40;;;;;;;12.51;100.00;99736.27;1636489;87;20992;-66
2022/04/27 09:40:13;;;;;;;7.55;6.58;;;;;;;12.68;100.00;99736.07;1645616;86;21487;-66
2022/04/27 09:42:44;;;;;;;6.92;5.70;;;;;;;12.67;100.00;99738.50;1663638;86;21169;-67
2022/04/27 09:45:24;;;;;;;6.95;5.67;;;;;;;12.72;100.00;99735.83;1639209;86;21068;-68
2022/04/27 09:48:04;;;;;;;6.67;5.65;;;;;;;12.76;100.00;99734.75;1636856;86;20873;-66
2022/04/27 09:50:51;;;;;;;7.75;5.55;;;;;;;12.77;100.00;99739.08;1646477;86;20942;-68
2022/04/27 09:53:19;;;;;;;6.70;5.55;;;;;;;13.03;100.00;99740.80;1599239;89;21090;-67
2022/04/27 09:55:59;;;;;;;10.08;6.35;;;;;;;13.06;100.00;99741.60;1599299;89;20916;-68
2022/04/27 09:58:27;;;;;;;9.45;6.30;;;;;;;12.92;100.00;99735.63;1599177;89;21008;-67
2022/04/27 10:00:58;;;;;;;5.53;5.00;;;;;;;13.01;100.00;99741.59;1597829;89;21010;-67
2022/04/27 10:03:25;;;;;;;6.58;5.75;;;;;;;13.41;100.00;99735.23;1562430;91;21058;-67
2022/04/27 10:05:52;;;;;;;10.32;6.37;;;;;;;13.75;100.00;99741.46;1594336;90;21046;-67
2022/04/27 10:08:20;;;;;;;7.12;5.62;;;;;;;13.72;100.00;99741.47;1594683;88;21164;-68
2022/04/27 10:10:47;;;;;;;7.17;6.00;;;;;;;13.72;100.00;99751.70;1562253;91;21025;-66
2022/04/27 10:13:15;;;;;;;11.63;5.80;;;;;;;13.98;100.00;99745.48;1594714;90;21102;-67
2022/04/27 10:15:45;;;;;;;7.92;5.00;;;;;;;13.98;99.69;99744.14;1595086;90;21013;-67
2022/04/27 10:18:18;;;;;;;6.70;6.00;;;;;;;13.70;96.29;99744.96;1566776;91;21029;-66
2022/04/27 10:20:48;;;;;;;8.73;6.45;;;;;;;13.66;100.00;99743.33;1594330;90;21208;-68
2022/04/27 10:23:33;;;;;;;7.67;5.72;;;;;;;13.87;97.46;99748.20;1566631;91;21596;-65
2022/04/27 10:26:09;;;;;;;9.65;6.00;;;;;;;14.14;97.42;99744.39;1594364;90;21630;-67
2022/04/27 10:28:50;;;;;;;5.75;4.90;;;;;;;14.21;97.07;99746.79;1577739;87;21017;-65
2022/04/27 10:31:48;;;;;;;6.85;5.37;;;;;;;14.43;88.31;99748.66;1639691;87;20983;-67
2022/04/27 10:34:24;;;;;;;6.95;5.45;;;;;;;14.17;88.43;99748.44;1587765;90;21171;-66
2022/04/27 10:36:55;;;;;;;6.80;5.78;;;;;;;14.45;93.92;99745.66;1558793;90;21605;-66
2022/04/27 10:39:25;;;;;;;7.42;5.97;;;;;;;14.37;81.68;99757.84;1559416;91;21027;-69
2022/04/27 10:42:08;;;;;;;36.80;31.00;;;;;;;14.09;84.75;99752.50;1554730;91;21546;-68
2022/04/27 10:44:54;;;;;;;35.50;23.90;;;;;;;14.21;86.23;99746.27;1557994;92;21585;-67
2022/04/27 10:47:23;;;;;;;171.30;93.70;;;;;;;14.33;88.76;99752.19;1559661;90;21632;-64
2022/04/27 10:50:14;;;;;;;15.40;10.18;;;;;;;14.56;85.65;99749.44;1559002;91;21022;-67
2022/04/27 10:52:51;;;;;;;8.28;5.50;;;;;;;14.86;84.91;99751.76;1530702;93;21066;-67
2022/04/27 10:55:41;;;;;;;7.28;4.72;;;;;;;15.01;84.14;99748.97;1512017;93;21126;-68
2022/04/27 10:58:24;;;;;;;6.10;4.70;;;;;;;15.29;65.93;99760.20;1530750;93;21633;-67
2022/04/27 11:01:06;;;;;;;29.20;18.60;;;;;;;15.26;67.80;99749.12;1530932;93;21212;-66
2022/04/27 11:03:36;;;;;;;21.27;15.32;;;;;;;15.23;75.18;99753.19;1527484;92;21014;-67
2022/04/27 11:06:09;;;;;;;4.60;3.92;;;;;;;15.43;75.97;99753.59;1531995;93;21558;-66
2022/04/27 11:09:14;;;;;;;5.22;3.98;;;;;;;15.87;64.38;99754.11;1531864;93;21004;-67
2022/04/27 11:11:55;;;;;;;5.15;3.80;;;;;;;15.97;63.01;99751.34;1517131;93;21074;-66
2022/04/27 11:14:34;;;;;;;5.60;3.80;;;;;;;15.78;61.31;99759.89;1515134;94;21388;-67
2022/04/27 11:16:59;;;;;;;7.83;5.67;;;;;;;15.93;62.09;99763.02;1514871;94;21113;-67
2022/04/27 11:19:37;;;;;;;4.80;3.60;;;;;;;16.38;58.64;99762.30;1515208;94;21006;-67
2022/04/27 11:22:15;;;;;;;8.17;3.80;;;;;;;16.44;59.44;99764.68;1527790;93;20989;-67
2022/04/27 11:24:45;;;;;;;8.25;5.65;;;;;;;16.72;61.80;99763.55;1541328;93;21123;-68
2022/04/27 11:27:12;;;;;;;5.20;3.77;;;;;;;16.36;54.14;99760.42;1541242;93;21562;-67
2022/04/27 11:29:40;;;;;;;6.30;3.47;;;;;;;16.18;55.71;99760.06;1603175;87;21049;-67
2022/04/27 11:32:09;;;;;;;4.58;3.85;;;;;;;16.24;54.80;99753.52;1649533;85;21548;-66
2022/04/27 11:34:37;;;;;;;7.22;3.55;;;;;;;16.41;57.72;99757.14;1649710;87;20971;-65
2022/04/27 11:37:20;;;;;;;4.08;3.25;;;;;;;16.41;56.29;99755.78;1650134;87;20987;-67
2022/04/27 11:39:49;;;;;;;5.53;3.62;;;;;;;16.28;56.19;99745.06;1649599;87;21115;-67
2022/04/27 11:42:16;;;;;;;3.90;3.10;;;;;;;16.33;57.59;99743.40;1650180;87;21608;-66
2022/04/27 11:44:52;;;;;;;9.38;4.10;;;;;;;16.29;59.41;99741.27;1649598;85;21049;-66
2022/04/27 11:47:29;;;;;;;7.60;3.45;;;;;;;16.48;55.41;99744.03;1649741;85;21107;-67
2022/04/27 11:50:00;;;;;;;8.08;4.15;;;;;;;16.22;54.32;99737.30;1649646;86;20994;-68
2022/04/27 11:52:30;;;;;;;7.50;4.80;;;;;;;15.85;55.09;99736.02;1649615;85;21342;-68
2022/04/27 11:55:10;;;;;;;6.00;4.65;;;;;;;15.76;59.41;99737.16;1649556;87;21554;-69
2022/04/27 11:57:39;;;;;;;6.33;4.60;;;;;;;15.53;57.29;99733.27;1662756;85;21529;-68
2022/04/27 12:00:09;;;;;;;5.45;3.72;;;;;;;15.52;56.84;99728.92;1675598;85;21566;-68
2022/04/27 12:02:43;;;;;;;22.60;17.67;;;;;;;15.64;55.36;99732.63;1643701;86;20954;-67